AirNav   ProFlight Series 2 Aviation Headset
 
 1033 users online  

PA37 Sci-Mahanoy Heliport
Mahanoy, Pennsylvania, USA

GOING TO MAHANOY?


FAA INFORMATION EFFECTIVE 18 JUNE 2020

Location

FAA Identifier: PA37
Lat/Long: 40-47-43.8700N 076-10-37.2800W
40-47.731167N 076-10.621333W
40.7955194,-76.1770222
(estimated)
Elevation: 1500 ft. / 457 m (estimated)
Variation: 12W (1995)
From city: 1 mile SE of MAHANOY, PA
Time zone: UTC -4 (UTC -5 during Standard Time)
Zip code: 17948

Heliport Operations

Heliport use: Private use. Permission required prior to landing
Activation date: 07/1996
Control tower: no
ARTCC: NEW YORK CENTER
FSS: WILLIAMSPORT FLIGHT SERVICE STATION
Attendance: CONTINUOUS
Wind indicator: yes
Segmented circle: no
Lights: FOR PERIMETER LGTS CALL 717-773-2158.

Heliport Communications

WX AWOS-3 at ZER (10 nm SW): 127.575 (570-544-2778)
WX AWOS-3 at HZL (14 nm NE): 119.975 (570-459-4901)
WX AWOS-3 at N79 (17 nm W): 119.175 (570-672-0389)
WX AWOS-3PT at 22N (19 nm E): 119.350 (570-386-3423)

Nearby radio navigation aids

VOR radial/distance  VOR name  Freq  Var
RAVr064/24.1RAVINE VORTAC114.6011W
ETXr309/25.9EAST TEXAS VOR/DME110.2009W
MIPr131/26.0MILTON VORTAC109.2009W
SEGr098/32.1SELINSGROVE VOR/DME110.4008W
FJCr287/33.1ALLENTOWN VORTAC117.5010W
LVZr228/36.2WILKES-BARRE VORTAC111.6010W

 
NDB name  Hdg/Dist  Freq  Var  ID
BELLGROVE048/27.532810WBZJ -... --.. .---

Heliport Services

Runway Information

Helipad H1

Dimensions: 65 x 65 ft. / 20 x 20 m
Surface: asphalt
Runway edge lights: PERI
Traffic pattern: leftleft

Heliport Ownership and Management from official FAA records

Ownership: Publicly-owned
Owner: PA DEPT OF CORR-SCI MAHONEY
301 MOREA RD
FRACKVILLE, PA 17932
Phone 717-773-2158
Manager: EDWARD J MIKULSKI
301 MOREA RD
FRACKVILLE, PA 17932
Phone 717-773-2158
X8459

Additional Remarks

A52-H1 75 FT PLINES 150 FT NORTH & EAST OF HELIPAD.
FOR CD CTC HARRISBURG APCH AT 800-932-0712.

Instrument Procedures

There are no published instrument procedures at PA37.

Some nearby airports with instrument procedures:

KZER - Schuylkill County/Joe Zerbey Airport (10 nm SW)
KHZL - Hazleton Regional Airport (14 nm NE)
N13 - Bloomsburg Municipal Airport (17 nm NW)
N79 - Northumberland County Airport (17 nm W)
22N - Jake Arner Memorial Airport (19 nm E)
 
Loc | Ops | Rwys | IFR | FBO | Links
Com | Nav | Svcs | Stats | Notes
Area around PA37 (Sci-Mahanoy Heliport)
 
Road maps at: MapQuest Bing Google
 
Aerial photo
No photo
 
Sectional chart

 
Airport distance calculator
Flying to Sci-Mahanoy Heliport? Find the distance to fly.

From to PA37

Sunrise and sunset
Times for 02-Jul-2020
 Local
(UTC-4)
 Zulu
(UTC)
Morning civil twilight05:0609:06
Sunrise05:3909:39
Sunset20:3900:39
Evening civil twilight21:1201:12

Current date and time
Zulu (UTC)  02-Jul-2020 22:29:16
Local (UTC-4)  02-Jul-2020 18:29:16
 
METAR
KHZL 
14nm NE 
022216Z AUTO 30004KT SCT065 30/15 A2992 RMK AO2 PWINO
K22N 
19nm E 
022215Z AUTO 24003KT 10SM CLR 31/18 A2983 RMK AO2
KRDG 
27nm S 
022154Z AUTO 31011KT 10SM CLR 34/17 A2981 RMK AO2 SLP095 T03390167
TAF
NOTAMs
Click for the latest NOTAMs
NOTAMs are issued by the DoD/FAA and will open in a separate window not controlled by AirNav.

 

 
 

Would you like to see your business listed on this page?

 If your business provides an interesting product or service to pilots, flight crews, aircraft, or users of the Sci-Mahanoy Heliport, you should consider listing it here.  To start the listing process, click on the button below
 
Add a business
 

Other Pages about Sci-Mahanoy Heliport

Update a link
 
Copyright © AirNav, LLC. All rights reserved. Privacy Policy  Contact